createdAt,value
2023-10-05T00:01:06.938Z,101129.22
2023-10-05T00:02:12.787Z,101133.06
2023-10-05T00:03:15.670Z,101129.47
2023-10-05T00:04:19.860Z,101128.63
2023-10-05T00:05:27.776Z,101124.19
2023-10-05T00:06:32.091Z,101128.88
2023-10-05T00:07:34.596Z,101136.38
2023-10-05T00:08:38.105Z,101124.44
2023-10-05T00:09:40.519Z,101133.59
2023-10-05T00:10:42.993Z,101125.28
2023-10-05T00:11:45.829Z,101116.38
2023-10-05T00:12:48.828Z,101118.31
2023-10-05T00:13:58.832Z,101121.09
2023-10-05T00:15:13.229Z,101121.91
2023-10-05T00:16:22.958Z,101117.47
2023-10-05T00:17:25.348Z,101113.03
2023-10-05T00:18:28.222Z,101112.19
2023-10-05T00:19:35.082Z,101107.75
2023-10-05T00:20:40.990Z,101112.44
2023-10-05T00:21:52.856Z,101113.31
2023-10-05T00:22:55.960Z,101113.53
2023-10-05T00:24:01.589Z,101112.97
2023-10-05T00:25:06.113Z,101115.72
2023-10-05T00:26:10.298Z,101125.13
2023-10-05T00:27:14.891Z,101119.59
2023-10-05T00:28:25.016Z,101124.53
2023-10-05T00:29:30.651Z,101132.25
2023-10-05T00:30:33.124Z,101134.19
2023-10-05T00:31:40.915Z,101133.34
2023-10-05T00:32:48.518Z,101134.44
2023-10-05T00:33:57.745Z,101123.63
2023-10-05T00:35:16.440Z,101131.09
2023-10-05T00:36:19.519Z,101117.47
2023-10-05T00:37:22.077Z,101118.59
2023-10-05T00:38:26.075Z,101116.91
2023-10-05T00:39:31.237Z,101124.63
2023-10-05T00:40:44.017Z,101112.72
2023-10-05T00:42:05.930Z,101122.34
2023-10-05T00:43:13.781Z,101107.69
2023-10-05T00:44:17.234Z,101120.66
2023-10-05T00:45:26.239Z,101123.69
2023-10-05T00:46:32.956Z,101113.97
2023-10-05T00:47:36.311Z,101119.75
2023-10-05T00:48:43.073Z,101109.78
2023-10-05T00:49:53.376Z,101112.78
2023-10-05T00:51:17.667Z,101113.06
2023-10-05T00:52:26.911Z,101114.13
2023-10-05T00:53:31.209Z,101118.81
2023-10-05T00:54:35.707Z,101111.63
2023-10-05T00:55:40.715Z,101114.63
2023-10-05T00:56:43.737Z,101109.09
2023-10-05T00:57:46.379Z,101117.63
2023-10-05T00:58:51.758Z,101115.94
2023-10-05T01:00:00.082Z,101108.50
2023-10-05T01:01:07.285Z,101115.13
2023-10-05T01:02:16.288Z,101103.22
2023-10-05T01:03:35.375Z,101100.69
2023-10-05T01:04:54.841Z,101112.88
2023-10-05T01:06:17.676Z,101113.94
2023-10-05T01:07:25.226Z,101113.09
2023-10-05T01:08:27.883Z,101111.44
2023-10-05T01:09:49.775Z,101112.28
2023-10-05T01:10:55.661Z,101108.94
2023-10-05T01:12:08.496Z,101105.31
2023-10-05T01:13:34.508Z,101118.31
2023-10-05T01:14:58.857Z,101120.47
2023-10-05T01:16:22.101Z,101122.41
2023-10-05T01:17:29.347Z,101120.72
2023-10-05T01:18:33.160Z,101116.53
2023-10-05T01:19:40.390Z,101122.06
2023-10-05T01:20:44.574Z,101120.38
2023-10-05T01:21:53.080Z,101115.94
2023-10-05T01:22:57.517Z,101115.94
2023-10-05T01:24:00.457Z,101122.59
2023-10-05T01:25:06.519Z,101112.59
2023-10-05T01:26:12.313Z,101113.41
2023-10-05T01:27:14.849Z,101113.16
2023-10-05T01:28:17.511Z,101107.88
2023-10-05T01:29:19.950Z,101110.66
2023-10-05T01:30:22.958Z,101115.38
2023-10-05T01:31:25.703Z,101108.16
2023-10-05T01:32:29.155Z,101108.97
2023-10-05T01:33:31.624Z,101101.53
2023-10-05T01:34:34.477Z,101098.75
2023-10-05T01:35:39.374Z,101099.00
2023-10-05T01:36:43.637Z,101087.94
2023-10-05T01:37:48.183Z,101091.53
2023-10-05T01:38:55.757Z,101097.06
2023-10-05T01:40:00.661Z,101084.06
2023-10-05T01:41:04.467Z,101090.47
2023-10-05T01:42:07.007Z,101093.22
2023-10-05T01:43:11.309Z,101096.56
2023-10-05T01:44:15.375Z,101090.19
2023-10-05T01:45:21.304Z,101093.78
2023-10-05T01:46:25.300Z,101082.72
2023-10-05T01:47:27.770Z,101089.13
2023-10-05T01:48:32.048Z,101086.09
2023-10-05T01:49:34.591Z,101079.72
2023-10-05T01:50:37.816Z,101076.72
2023-10-05T01:51:40.266Z,101073.09
2023-10-05T01:52:43.217Z,101077.53
2023-10-05T01:53:46.834Z,101075.63
2023-10-05T01:54:49.221Z,101075.38
2023-10-05T01:55:51.828Z,101069.84
2023-10-05T01:56:56.560Z,101075.38
2023-10-05T01:58:00.314Z,101074.03
2023-10-05T01:59:08.064Z,101064.88
2023-10-05T02:00:16.151Z,101064.88
2023-10-05T02:01:29.238Z,101061.88
2023-10-05T02:02:32.509Z,101067.41
2023-10-05T02:03:35.616Z,101067.97
2023-10-05T02:04:44.878Z,101057.75
2023-10-05T02:05:49.028Z,101069.66
2023-10-05T02:06:53.690Z,101066.91
2023-10-05T02:07:56.329Z,101064.97
2023-10-05T02:08:58.851Z,101069.16
2023-10-05T02:10:01.363Z,101063.63
2023-10-05T02:11:05.798Z,101066.38
2023-10-05T02:12:10.451Z,101060.59
2023-10-05T02:13:14.239Z,101053.97
2023-10-05T02:14:17.978Z,101058.44
2023-10-05T02:15:20.504Z,101067.56
2023-10-05T02:16:24.098Z,101062.03
2023-10-05T02:17:26.550Z,101061.78
2023-10-05T02:18:31.790Z,101060.69
2023-10-05T02:19:38.313Z,101063.44
2023-10-05T02:20:46.332Z,101062.09
2023-10-05T02:21:53.398Z,101062.09
2023-10-05T02:22:56.221Z,101054.91
2023-10-05T02:23:59.566Z,101062.97
2023-10-05T02:25:04.636Z,101059.13
2023-10-05T02:26:34.984Z,101056.34
2023-10-05T02:27:39.835Z,101062.69
2023-10-05T02:28:43.254Z,101057.16
2023-10-05T02:29:48.351Z,101054.13
2023-10-05T02:30:52.403Z,101057.78
2023-10-05T02:32:06.818Z,101055.00
2023-10-05T02:33:11.376Z,101057.50
2023-10-05T02:34:18.355Z,101053.66
2023-10-05T02:35:26.374Z,101050.03
2023-10-05T02:36:28.829Z,101045.09
2023-10-05T02:37:34.002Z,101046.78
2023-10-05T02:38:37.423Z,101043.16
2023-10-05T02:39:41.166Z,101038.47
2023-10-05T02:40:48.133Z,101040.38
2023-10-05T02:41:52.460Z,101037.63
2023-10-05T02:42:55.968Z,101039.28
2023-10-05T02:44:02.717Z,101035.44
2023-10-05T02:45:06.636Z,101041.81
2023-10-05T02:46:13.062Z,101030.72
2023-10-05T02:47:24.011Z,101033.50
2023-10-05T02:48:27.338Z,101031.56
2023-10-05T02:49:29.838Z,101039.88
2023-10-05T02:50:33.616Z,101039.88
2023-10-05T02:51:36.874Z,101041.53
2023-10-05T02:52:40.481Z,101036.00
2023-10-05T02:53:42.953Z,101042.41
2023-10-05T02:54:46.461Z,101038.50
2023-10-05T02:55:52.892Z,101036.59
2023-10-05T02:56:55.428Z,101039.38
2023-10-05T02:58:00.736Z,101041.88
2023-10-05T02:59:09.388Z,101036.34
2023-10-05T03:00:13.644Z,101047.41
2023-10-05T03:01:17.386Z,101036.59
2023-10-05T03:02:20.108Z,101042.16
2023-10-05T03:03:22.941Z,101040.19
2023-10-05T03:04:39.244Z,101035.25
2023-10-05T03:05:43.439Z,101029.97
2023-10-05T03:07:11.782Z,101039.13
2023-10-05T03:08:14.347Z,101033.84
2023-10-05T03:09:19.520Z,101031.88
2023-10-05T03:10:25.085Z,101033.56
2023-10-05T03:11:27.705Z,101039.38
2023-10-05T03:12:30.060Z,101039.13
2023-10-05T03:13:34.926Z,101040.19
2023-10-05T03:14:37.267Z,101049.09
2023-10-05T03:15:39.996Z,101039.38
2023-10-05T03:16:45.558Z,101037.44
2023-10-05T03:17:50.098Z,101042.16
2023-10-05T03:18:53.217Z,101042.97
2023-10-05T03:19:55.764Z,101037.44
2023-10-05T03:21:00.576Z,101038.28
2023-10-05T03:22:07.018Z,101029.38
2023-10-05T03:23:13.464Z,101045.47
2023-10-05T03:24:16.342Z,101040.19
2023-10-05T03:25:24.179Z,101044.06
2023-10-05T03:26:27.299Z,101040.47
2023-10-05T03:27:29.650Z,101040.19
2023-10-05T03:28:36.234Z,101037.09
2023-10-05T03:29:39.767Z,101033.50
2023-10-05T03:30:43.457Z,101032.41
2023-10-05T03:31:55.472Z,101035.19
2023-10-05T03:33:02.360Z,101033.75
2023-10-05T03:34:09.676Z,101034.59
2023-10-05T03:35:12.943Z,101031.81
2023-10-05T03:36:15.627Z,101026.53
2023-10-05T03:37:18.749Z,101029.91
2023-10-05T03:38:24.071Z,101031.81
2023-10-05T03:39:30.260Z,101029.03
2023-10-05T03:40:39.035Z,101029.03
2023-10-05T03:41:41.590Z,101033.75
2023-10-05T03:42:47.962Z,101035.69
2023-10-05T03:43:53.989Z,101032.06
2023-10-05T03:45:04.495Z,101032.06
2023-10-05T03:46:10.963Z,101026.53
2023-10-05T03:47:13.542Z,101036.78
2023-10-05T03:48:16.912Z,101025.97
2023-10-05T03:49:23.531Z,101026.78
2023-10-05T03:50:26.620Z,101028.75
2023-10-05T03:51:32.595Z,101030.66
2023-10-05T03:52:35.278Z,101023.69
2023-10-05T03:53:38.035Z,101031.72
2023-10-05T03:54:40.483Z,101030.91
2023-10-05T03:55:42.985Z,101025.38
2023-10-05T03:56:52.013Z,101019.50
2023-10-05T03:57:55.177Z,101023.69
2023-10-05T03:59:02.453Z,101023.13
2023-10-05T04:00:18.669Z,101022.00
2023-10-05T04:01:26.568Z,101023.13
2023-10-05T04:02:32.282Z,101015.91
2023-10-05T04:03:37.412Z,101022.53
2023-10-05T04:04:44.844Z,101026.72
2023-10-05T04:05:47.607Z,101025.03
2023-10-05T04:06:52.866Z,101030.56
2023-10-05T04:08:01.808Z,101024.22
2023-10-05T04:09:12.690Z,101025.88
2023-10-05T04:10:17.047Z,101020.56
2023-10-05T04:11:21.403Z,101011.44
2023-10-05T04:12:23.747Z,101012.28
2023-10-05T04:13:27.839Z,101017.81
2023-10-05T04:14:30.447Z,101007.84
2023-10-05T04:15:33.285Z,101011.44
2023-10-05T04:16:35.839Z,101008.41
2023-10-05T04:17:39.032Z,101008.41
2023-10-05T04:18:41.652Z,101002.06
2023-10-05T04:19:48.371Z,100997.34
2023-10-05T04:20:54.523Z,101000.13
2023-10-05T04:21:58.207Z,100996.53
2023-10-05T04:23:01.075Z,101000.13
2023-10-05T04:24:04.460Z,101005.41
2023-10-05T04:25:09.761Z,101000.72
2023-10-05T04:26:12.486Z,100996.84
2023-10-05T04:27:19.704Z,100985.19
2023-10-05T04:28:42.480Z,100991.56
2023-10-05T04:29:45.588Z,100991.31
2023-10-05T04:30:48.265Z,100992.16
2023-10-05T04:31:51.448Z,100990.47
2023-10-05T04:32:55.127Z,100984.94
2023-10-05T04:33:57.872Z,100983.03
2023-10-05T04:35:00.308Z,100984.09
2023-10-05T04:36:06.564Z,100986.34
2023-10-05T04:37:11.139Z,100987.22
2023-10-05T04:38:14.261Z,100986.34
2023-10-05T04:39:27.748Z,100981.66
2023-10-05T04:40:38.509Z,100992.47
2023-10-05T04:41:50.958Z,100979.72
2023-10-05T04:42:53.765Z,100988.03
2023-10-05T04:43:58.464Z,100980.81
2023-10-05T04:45:00.893Z,100971.44
2023-10-05T04:46:06.770Z,100986.09
2023-10-05T04:47:12.228Z,100979.72
2023-10-05T04:48:14.887Z,100984.44
2023-10-05T04:49:17.967Z,100981.41
2023-10-05T04:50:20.491Z,100980.81
2023-10-05T04:51:30.486Z,100975.53
2023-10-05T04:52:35.369Z,100971.94
2023-10-05T04:53:40.077Z,100969.41
2023-10-05T04:54:42.523Z,100980.25
2023-10-05T04:55:46.646Z,100977.72
2023-10-05T04:56:55.277Z,100980.25
2023-10-05T04:58:16.211Z,100977.97
2023-10-05T04:59:19.130Z,100981.59
2023-10-05T05:00:40.353Z,100978.22
2023-10-05T05:02:02.030Z,100973.53
2023-10-05T05:03:23.609Z,100968.84
2023-10-05T05:04:43.069Z,100973.53
2023-10-05T05:06:10.335Z,100972.69
2023-10-05T05:07:12.780Z,100966.56
2023-10-05T05:08:15.325Z,100964.66
2023-10-05T05:09:19.096Z,100970.19
2023-10-05T05:10:22.163Z,100971.53
2023-10-05T05:11:24.546Z,100969.59
2023-10-05T05:12:28.141Z,100977.88
2023-10-05T05:13:30.651Z,100972.34
2023-10-05T05:14:48.521Z,100966.81
2023-10-05T05:15:52.093Z,100966.81
2023-10-05T05:16:55.068Z,100963.50
2023-10-05T05:17:58.135Z,100974.28
2023-10-05T05:19:00.985Z,100973.44
2023-10-05T05:20:12.697Z,100974.28
2023-10-05T05:21:16.324Z,100971.53
2023-10-05T05:22:21.099Z,100972.34
2023-10-05T05:23:23.478Z,100973.22
2023-10-05T05:24:29.774Z,100967.69
2023-10-05T05:25:32.487Z,100965.13
2023-10-05T05:26:34.932Z,100965.13
2023-10-05T05:27:37.466Z,100967.69
2023-10-05T05:28:40.359Z,100963.22
2023-10-05T05:29:43.076Z,100964.06
2023-10-05T05:30:45.580Z,100966.81
2023-10-05T05:31:50.531Z,100964.06
2023-10-05T05:32:58.265Z,100965.72
2023-10-05T05:34:01.136Z,100968.25
2023-10-05T05:35:04.288Z,100969.31
2023-10-05T05:36:14.791Z,100965.47
2023-10-05T05:37:31.051Z,100968.25
2023-10-05T05:38:34.522Z,100969.09
2023-10-05T05:39:40.874Z,100969.94
2023-10-05T05:40:44.807Z,100966.34
2023-10-05T05:41:47.667Z,100964.13
2023-10-05T05:42:55.705Z,100965.81
2023-10-05T05:43:58.045Z,100967.50
2023-10-05T05:45:05.090Z,100974.13
2023-10-05T05:46:13.516Z,100968.31
2023-10-05T05:47:16.256Z,100962.78
2023-10-05T05:48:20.146Z,100958.94
2023-10-05T05:49:23.645Z,100959.75
2023-10-05T05:50:31.678Z,100960.34
2023-10-05T05:51:34.745Z,100966.47
2023-10-05T05:52:38.522Z,100965.38
2023-10-05T05:53:42.000Z,100961.78
2023-10-05T05:54:48.646Z,100964.53
2023-10-05T05:56:02.639Z,100961.50
2023-10-05T05:57:08.999Z,100962.34
2023-10-05T05:58:18.476Z,100962.94
2023-10-05T05:59:21.404Z,100972.06
2023-10-05T06:00:23.852Z,100965.69
2023-10-05T06:01:27.634Z,100972.66
2023-10-05T06:02:30.190Z,100976.03
2023-10-05T06:03:33.409Z,100969.38
2023-10-05T06:04:43.048Z,100965.50
2023-10-05T06:05:45.504Z,100957.78
2023-10-05T06:06:50.107Z,100952.25
2023-10-05T06:07:52.758Z,100963.06
2023-10-05T06:09:00.728Z,100955.34
2023-10-05T06:10:03.552Z,100954.25
2023-10-05T06:11:09.994Z,100958.44
2023-10-05T06:12:14.099Z,100957.34
2023-10-05T06:13:18.048Z,100953.47
2023-10-05T06:14:20.901Z,100954.03
2023-10-05T06:15:23.449Z,100957.41
2023-10-05T06:16:32.015Z,100954.38
2023-10-05T06:17:38.120Z,100956.06
2023-10-05T06:18:40.665Z,100951.09
2023-10-05T06:19:43.149Z,100958.63
2023-10-05T06:20:48.330Z,100957.81
2023-10-05T06:21:51.294Z,100959.22
2023-10-05T06:22:53.785Z,100960.03
2023-10-05T06:23:56.330Z,100957.00
2023-10-05T06:25:00.230Z,100954.00
2023-10-05T06:26:03.997Z,100961.19
2023-10-05T06:27:08.133Z,100955.44
2023-10-05T06:28:10.667Z,100958.75
2023-10-05T06:29:19.291Z,100955.72
2023-10-05T06:30:22.462Z,100954.38
2023-10-05T06:31:25.280Z,100949.69
2023-10-05T06:32:27.882Z,100950.25
2023-10-05T06:33:30.783Z,100949.97
2023-10-05T06:34:33.307Z,100947.22
2023-10-05T06:35:36.995Z,100947.81
2023-10-05T06:36:40.566Z,100953.66
2023-10-05T06:37:43.092Z,100948.13
2023-10-05T06:38:46.419Z,100950.63
2023-10-05T06:39:49.895Z,100951.81
2023-10-05T06:40:52.427Z,100960.13
2023-10-05T06:41:55.939Z,100956.84
2023-10-05T06:43:04.223Z,100953.22
2023-10-05T06:44:08.972Z,100952.97
2023-10-05T06:45:15.218Z,100953.81
2023-10-05T06:46:22.060Z,100953.28
2023-10-05T06:47:37.965Z,100953.88
2023-10-05T06:48:41.834Z,100953.88
2023-10-05T06:49:44.236Z,100953.59
2023-10-05T06:50:48.357Z,100955.03
2023-10-05T06:51:51.211Z,100948.38
2023-10-05T06:52:54.170Z,100956.44
2023-10-05T06:53:59.108Z,100949.81
2023-10-05T06:55:09.157Z,100948.44
2023-10-05T06:56:12.609Z,100947.31
2023-10-05T06:57:14.979Z,100947.66
2023-10-05T06:58:17.656Z,100952.09
2023-10-05T06:59:22.550Z,100950.72
2023-10-05T07:00:26.950Z,100951.56
2023-10-05T07:01:29.481Z,100956.00
2023-10-05T07:02:31.946Z,100961.88
2023-10-05T07:03:36.740Z,100964.13
2023-10-05T07:04:39.457Z,100956.66
2023-10-05T07:05:41.897Z,100953.34
2023-10-05T07:06:46.217Z,100964.16
2023-10-05T07:07:48.821Z,100960.03
2023-10-05T07:08:54.104Z,100955.34
2023-10-05T07:09:57.236Z,100959.25
2023-10-05T07:10:59.998Z,100963.44
2023-10-05T07:12:04.532Z,100964.84
2023-10-05T07:13:10.607Z,100968.19
2023-10-05T07:14:13.237Z,100962.94
2023-10-05T07:15:25.302Z,100960.50
2023-10-05T07:16:27.697Z,100964.41
2023-10-05T07:17:31.515Z,100966.66
2023-10-05T07:18:34.527Z,100966.97
2023-10-05T07:19:37.334Z,100968.97
2023-10-05T07:20:43.051Z,100969.25
2023-10-05T07:21:46.217Z,100974.00
2023-10-05T07:22:49.366Z,100970.69
2023-10-05T07:23:52.164Z,100973.50
2023-10-05T07:24:55.842Z,100974.63
2023-10-05T07:25:59.540Z,100984.13
2023-10-05T07:27:02.666Z,100980.53
2023-10-05T07:28:05.923Z,100983.38
2023-10-05T07:29:24.011Z,100985.38
2023-10-05T07:30:30.946Z,100986.50
2023-10-05T07:31:33.374Z,100983.78
2023-10-05T07:32:36.101Z,100981.03
2023-10-05T07:33:40.319Z,100985.75
2023-10-05T07:34:43.231Z,100987.75
2023-10-05T07:35:45.857Z,100985.00
2023-10-05T07:36:48.361Z,100985.03
2023-10-05T07:37:51.065Z,100985.88
2023-10-05T07:38:53.486Z,100982.84
2023-10-05T07:39:56.786Z,100986.25
2023-10-05T07:41:06.161Z,100982.09
2023-10-05T07:42:12.211Z,100983.53
2023-10-05T07:43:15.038Z,100987.44
2023-10-05T07:44:18.843Z,100994.16
2023-10-05T07:45:21.924Z,100986.16
2023-10-05T07:46:25.325Z,100992.00
2023-10-05T07:47:28.189Z,100989.53
2023-10-05T07:48:30.860Z,100977.84
2023-10-05T07:49:37.564Z,100983.44
2023-10-05T07:50:40.217Z,100985.13
2023-10-05T07:51:42.631Z,100989.59
2023-10-05T07:52:45.684Z,100975.09
2023-10-05T07:53:48.029Z,100991.81
2023-10-05T07:54:50.758Z,100994.31
2023-10-05T07:55:53.905Z,100992.38
2023-10-05T07:56:56.462Z,100997.94
2023-10-05T07:57:59.070Z,100986.53
2023-10-05T07:59:04.409Z,100986.78
2023-10-05T08:00:13.929Z,100993.53
2023-10-05T08:01:16.660Z,100991.84
2023-10-05T08:02:19.764Z,100994.91
2023-10-05T08:03:25.312Z,100997.13
2023-10-05T08:04:28.024Z,100997.41
2023-10-05T08:05:31.453Z,100994.03
2023-10-05T08:06:34.206Z,100998.78
2023-10-05T08:07:36.750Z,101000.19
2023-10-05T08:08:39.307Z,101000.72
2023-10-05T08:09:44.203Z,100996.00
2023-10-05T08:10:47.745Z,101001.00
2023-10-05T08:11:52.301Z,100992.34
2023-10-05T08:12:54.913Z,100990.66
2023-10-05T08:13:57.273Z,100991.22
2023-10-05T08:14:59.713Z,100992.91
2023-10-05T08:16:02.227Z,100991.78
2023-10-05T08:17:05.771Z,100986.75
2023-10-05T08:18:08.340Z,100994.53
2023-10-05T08:19:10.945Z,100989.53
2023-10-05T08:20:13.922Z,101000.97
2023-10-05T08:21:16.341Z,100999.28
2023-10-05T08:22:18.854Z,101002.03
2023-10-05T08:23:21.917Z,100995.63
2023-10-05T08:25:34.071Z,101003.38
2023-10-05T08:26:36.631Z,100997.50
2023-10-05T08:27:40.846Z,100999.69
2023-10-05T08:28:43.539Z,100992.41
2023-10-05T08:29:47.597Z,100998.81
2023-10-05T08:31:07.413Z,101001.81
2023-10-05T08:32:17.943Z,101004.28
2023-10-05T08:33:20.927Z,101002.81
2023-10-05T08:34:23.552Z,100999.44
2023-10-05T08:35:27.635Z,100994.91
2023-10-05T08:36:31.482Z,100998.75
2023-10-05T08:37:43.676Z,100993.91
2023-10-05T08:38:50.853Z,100996.63
2023-10-05T08:39:53.557Z,100995.44
2023-10-05T08:40:57.924Z,100997.28
2023-10-05T08:42:04.972Z,100992.75
2023-10-05T08:43:12.961Z,100993.50
2023-10-05T08:44:29.288Z,100986.44
2023-10-05T08:45:36.057Z,100989.94
2023-10-05T08:46:44.728Z,100983.69
2023-10-05T08:47:51.314Z,100987.50
2023-10-05T08:48:56.844Z,100989.69
2023-10-05T08:50:00.743Z,100984.53
2023-10-05T08:51:13.978Z,100984.41
2023-10-05T08:52:21.093Z,100988.75
2023-10-05T08:53:24.069Z,100994.53
2023-10-05T08:54:33.430Z,100980.16
2023-10-05T08:55:39.534Z,100985.91
2023-10-05T08:56:43.907Z,100994.75
2023-10-05T08:57:54.007Z,100996.88
2023-10-05T08:58:56.476Z,100994.53
2023-10-05T08:59:58.901Z,101001.75
2023-10-05T09:01:05.520Z,101000.53
2023-10-05T09:02:09.915Z,101000.75
2023-10-05T09:03:31.457Z,100999.00
2023-10-05T09:04:49.315Z,101009.59
2023-10-05T09:06:14.960Z,101010.97
2023-10-05T09:07:37.809Z,101002.47
2023-10-05T09:08:55.388Z,101017.84
2023-10-05T09:09:58.423Z,101008.00
2023-10-05T09:11:00.825Z,101018.59
2023-10-05T09:12:20.793Z,101013.72
2023-10-05T09:13:24.678Z,101007.84
2023-10-05T09:14:30.293Z,101008.03
2023-10-05T09:15:46.352Z,101006.91
2023-10-05T09:16:49.617Z,101009.63
2023-10-05T09:17:58.496Z,101011.81
2023-10-05T09:19:02.327Z,101008.41
2023-10-05T09:20:34.418Z,101009.44
2023-10-05T09:21:55.558Z,101004.88
2023-10-05T09:22:59.388Z,101014.34
2023-10-05T09:24:18.886Z,101019.84
2023-10-05T09:25:28.846Z,101020.38
2023-10-05T09:26:40.613Z,101025.63
2023-10-05T09:27:51.958Z,101023.53
2023-10-05T09:29:14.079Z,101029.91
2023-10-05T09:30:16.991Z,101016.59
2023-10-05T09:31:21.315Z,101015.38
2023-10-05T09:32:38.078Z,101018.06
2023-10-05T09:34:07.606Z,101014.03
2023-10-05T09:35:26.647Z,101014.44
2023-10-05T09:36:29.051Z,101024.72
2023-10-05T09:37:35.523Z,101018.16
2023-10-05T09:38:42.005Z,101015.78
2023-10-05T09:39:50.902Z,101016.50
2023-10-05T09:40:56.160Z,101017.53
2023-10-05T09:42:02.616Z,101016.63
2023-10-05T09:43:07.184Z,101011.72
2023-10-05T09:44:20.808Z,101006.84
2023-10-05T09:45:27.439Z,101001.75
2023-10-05T09:46:31.217Z,101015.97
2023-10-05T09:47:37.171Z,101013.38
2023-10-05T09:48:40.780Z,101012.75
2023-10-05T09:49:46.978Z,101008.47
2023-10-05T09:50:50.387Z,101003.06
2023-10-05T09:51:53.741Z,101005.22
2023-10-05T09:53:01.080Z,101007.41
2023-10-05T09:54:10.136Z,101012.38
2023-10-05T09:55:18.872Z,101005.31
2023-10-05T09:56:36.757Z,101010.28
2023-10-05T09:57:48.178Z,101010.47
2023-10-05T09:58:53.782Z,101002.59
2023-10-05T09:59:59.399Z,101009.00
2023-10-05T10:01:14.419Z,101009.22
2023-10-05T10:02:19.174Z,100999.66
2023-10-05T10:03:24.958Z,101008.91
2023-10-05T10:04:38.451Z,101004.09
2023-10-05T10:05:46.309Z,101010.03
2023-10-05T10:06:54.728Z,101012.03
2023-10-05T10:08:01.309Z,101018.47
2023-10-05T10:09:11.308Z,101014.50
2023-10-05T10:10:14.461Z,101010.88
2023-10-05T10:11:25.471Z,101015.97
2023-10-05T10:12:34.726Z,101016.63
2023-10-05T10:13:40.784Z,101005.19
2023-10-05T10:14:51.451Z,101011.94
2023-10-05T10:15:55.481Z,101005.81
2023-10-05T10:17:02.232Z,101010.94
2023-10-05T10:18:15.335Z,101001.97
2023-10-05T10:19:22.406Z,101007.09
2023-10-05T10:20:37.051Z,100993.66
2023-10-05T10:21:47.734Z,100992.03
2023-10-05T10:22:57.268Z,100994.31
2023-10-05T10:24:08.771Z,100987.66
2023-10-05T10:25:29.146Z,100997.25
2023-10-05T10:26:32.457Z,100999.34
2023-10-05T10:27:37.355Z,100990.91
2023-10-05T10:29:07.978Z,100993.72
2023-10-05T10:30:13.961Z,100994.34
2023-10-05T10:31:19.324Z,100988.72
2023-10-05T10:32:24.407Z,100985.09
2023-10-05T10:33:36.997Z,100996.66
2023-10-05T10:34:51.708Z,100990.19
2023-10-05T10:35:54.836Z,100996.66
2023-10-05T10:37:00.107Z,100992.19
2023-10-05T10:38:09.028Z,100994.16
2023-10-05T10:39:25.216Z,100990.50
2023-10-05T10:40:31.533Z,100991.03
2023-10-05T10:41:34.238Z,100977.00
2023-10-05T10:42:56.360Z,100980.41
2023-10-05T10:43:58.988Z,100980.75
2023-10-05T10:45:01.378Z,100979.91
2023-10-05T10:46:21.226Z,100987.19
2023-10-05T10:47:25.344Z,100991.66
2023-10-05T10:48:33.427Z,100987.69
2023-10-05T10:49:41.385Z,100993.31
2023-10-05T10:50:44.034Z,100985.75
2023-10-05T10:51:48.202Z,100994.16
2023-10-05T10:52:54.832Z,100999.44
2023-10-05T10:53:58.162Z,100993.00
2023-10-05T10:55:03.074Z,100983.75
2023-10-05T10:56:06.452Z,100988.53
2023-10-05T10:57:20.654Z,100985.22
2023-10-05T10:58:25.837Z,100989.16
2023-10-05T10:59:31.534Z,100974.63
2023-10-05T11:00:43.071Z,100990.13
2023-10-05T11:01:46.058Z,100990.41
2023-10-05T11:02:49.160Z,100997.19
2023-10-05T11:03:57.149Z,100986.56
2023-10-05T11:05:06.221Z,100985.19
2023-10-05T11:06:11.562Z,100982.22
2023-10-05T11:07:14.975Z,100988.44
2023-10-05T11:08:22.296Z,100983.47
2023-10-05T11:09:36.620Z,100986.88
2023-10-05T11:10:42.089Z,100985.34
2023-10-05T11:11:45.716Z,100982.31
2023-10-05T11:12:55.692Z,100984.59
2023-10-05T11:13:58.168Z,100987.50
2023-10-05T11:15:12.384Z,100982.53
2023-10-05T11:16:17.239Z,100991.59
2023-10-05T11:17:30.208Z,100990.84
2023-10-05T11:18:40.975Z,100993.16
2023-10-05T11:19:47.699Z,100998.53
2023-10-05T11:20:56.665Z,100989.09
2023-10-05T11:22:06.540Z,100987.19
2023-10-05T11:23:12.579Z,100981.38
2023-10-05T11:24:19.804Z,100987.63
2023-10-05T11:25:33.410Z,100987.09
2023-10-05T11:26:58.496Z,100990.31
2023-10-05T11:28:01.469Z,100989.22
2023-10-05T11:29:16.669Z,100989.31
2023-10-05T11:30:49.211Z,100989.09
2023-10-05T11:31:58.229Z,100993.34
2023-10-05T11:33:35.688Z,100981.94
2023-10-05T11:35:16.078Z,100989.59
2023-10-05T11:36:19.194Z,100978.19
2023-10-05T11:37:23.017Z,100982.72
2023-10-05T11:38:28.472Z,100975.47
2023-10-05T11:39:40.718Z,100976.94
2023-10-05T11:40:55.193Z,100971.91
2023-10-05T11:41:58.944Z,100974.00
2023-10-05T11:43:06.113Z,100972.31
2023-10-05T11:44:13.516Z,100977.91
2023-10-05T11:45:20.177Z,100969.84
2023-10-05T11:46:28.094Z,100977.69
2023-10-05T11:47:43.448Z,100971.59
2023-10-05T11:48:58.605Z,100959.25
2023-10-05T11:50:07.965Z,100967.94
2023-10-05T11:51:14.459Z,100965.75
2023-10-05T11:52:19.655Z,100970.00
2023-10-05T11:53:23.416Z,100966.38
2023-10-05T11:54:34.472Z,100972.25
2023-10-05T11:55:37.161Z,100963.03
2023-10-05T11:56:42.520Z,100973.13
2023-10-05T11:57:46.851Z,100974.25
2023-10-05T11:58:55.536Z,100975.91
2023-10-05T12:00:01.365Z,100979.53
2023-10-05T12:01:07.044Z,100980.38
2023-10-05T12:02:10.618Z,100982.03
2023-10-05T12:03:14.548Z,100975.91
2023-10-05T12:04:17.455Z,100977.88
2023-10-05T12:05:20.284Z,100980.66
2023-10-05T12:06:27.169Z,100973.13
2023-10-05T12:07:29.900Z,100973.13
2023-10-05T12:08:36.164Z,100969.78
2023-10-05T12:09:44.431Z,100978.19
2023-10-05T12:10:48.223Z,100984.63
2023-10-05T12:11:55.601Z,100980.97
2023-10-05T12:12:58.058Z,100983.78
2023-10-05T12:14:05.593Z,100983.28
2023-10-05T12:15:14.209Z,100981.59
2023-10-05T12:16:16.957Z,100987.19
2023-10-05T12:17:19.385Z,100984.41
2023-10-05T12:18:23.470Z,100983.28
2023-10-05T12:19:35.130Z,100978.78
2023-10-05T12:20:37.628Z,100986.34
2023-10-05T12:21:40.969Z,100974.31
2023-10-05T12:22:45.047Z,100979.94
2023-10-05T12:23:47.455Z,100979.94
2023-10-05T12:24:52.296Z,100977.13
2023-10-05T12:25:54.899Z,100974.31
2023-10-05T12:27:02.080Z,100975.78
2023-10-05T12:28:04.897Z,100977.75
2023-10-05T12:29:14.916Z,100986.97
2023-10-05T12:30:17.956Z,100979.69
2023-10-05T12:31:20.415Z,100981.69
2023-10-05T12:32:25.828Z,100984.47
2023-10-05T12:33:29.102Z,100974.41
2023-10-05T12:34:33.467Z,100992.34
2023-10-05T12:35:37.787Z,100978.66
2023-10-05T12:36:41.411Z,100976.16
2023-10-05T12:37:47.932Z,100983.75
2023-10-05T12:38:51.618Z,100988.19
2023-10-05T12:39:53.993Z,100982.91